State Park Place, Illinois
Current Conditions -  °F | °C
As of 2:43 PM on Wednesday 26 Nov 2014 (Local Time) from KBLV Reporting Station
Light Snow Light Snow  
Wind Chill: 32°   Ceiling: 300
Heat Index: 32°   Visibility: 0.5mi
Dew Point: 32°   Wind: 1mph
Humidity: 100%   Direction: 50°NE
Pressure: 30"   Gusts: NA
Location:  38.6902°N, 89.9816°W
Report Text: KBLV 262043Z AUTO 05001KT 1/2SM R14R/2400FT -SN FG VV003 00/00 A3000 RMK AO2
Loading
Personal Weather Stations






























Interactive Weather Map New forecast layout! Learn more

10-Day Weather Forecast

Advertisements
Track Severe Weather on mobile